Time;durP1;ratioP1;P1;durP2;ratioP2;P2;SDS_P1;SDS_P2;PMS_P1;PMS_P2;Temp;Humidity;BMP_temperature;BMP_pressure;BME280_temperature;BME280_humidity;BME280_pressure;Samples;Min_cycle;Max_cycle;Signal;HPM_P1;HPM_P2
2021/04/15 00:03:39;;;;;;;8.05;4.88;;;;;;;18.27;33.69;102150.91;31385010;28;20279;-60
2021/04/15 00:18:40;;;;;;;7.13;4.80;;;;;;;18.21;34.18;102149.50;31365803;28;20114;-60
2021/04/15 00:33:41;;;;;;;6.87;4.50;;;;;;;18.16;33.57;102145.44;31364283;28;20033;-61
2021/04/15 00:48:42;;;;;;;7.13;4.78;;;;;;;18.13;33.51;102145.63;31423387;28;20298;-61
2021/04/15 01:03:43;;;;;;;8.10;5.45;;;;;;;18.09;33.68;102144.94;31485890;28;20016;-58
2021/04/15 01:18:44;;;;;;;6.00;4.53;;;;;;;18.05;33.73;102135.56;31500456;28;20064;-59
2021/04/15 01:34:02;;;;;;;7.28;5.30;;;;;;;17.99;34.17;102128.03;31483933;28;20376;-61
2021/04/15 01:49:04;;;;;;;6.93;4.32;;;;;;;17.93;34.33;102123.13;31417822;28;20033;-61
2021/04/15 02:04:06;;;;;;;5.72;4.20;;;;;;;17.89;34.52;102125.09;31340598;28;20021;-56
2021/04/15 02:19:19;;;;;;;6.60;4.10;;;;;;;17.86;34.58;102133.16;31340266;28;20045;-61
2021/04/15 02:34:23;;;;;;;6.05;3.75;;;;;;;17.85;34.74;102122.72;31355484;28;20041;-59
2021/04/15 02:49:25;;;;;;;6.47;4.15;;;;;;;17.82;34.42;102121.13;31445540;28;20036;-59
2021/04/15 03:04:26;;;;;;;6.43;4.10;;;;;;;17.79;34.62;102129.16;31516606;28;20416;-59
2021/04/15 03:19:42;;;;;;;6.10;3.90;;;;;;;17.74;34.49;102126.78;31515920;28;20045;-59
2021/04/15 03:34:48;;;;;;;6.57;4.03;;;;;;;17.70;34.77;102127.06;31514446;28;20407;-59
2021/04/15 03:49:53;;;;;;;7.30;4.03;;;;;;;17.69;35.12;102126.22;31424602;28;20052;-59
2021/04/15 04:05:05;;;;;;;5.57;3.97;;;;;;;17.68;34.86;102127.13;31369365;28;20367;-59
2021/04/15 04:20:07;;;;;;;6.00;3.97;;;;;;;17.65;34.55;102139.63;31352872;28;20579;-59
2021/04/15 04:35:11;;;;;;;6.13;4.15;;;;;;;17.64;34.49;102148.44;31363734;28;20037;-60
2021/04/15 04:50:46;;;;;;;5.95;4.25;;;;;;;17.65;34.93;102165.91;31436791;28;20040;-59
2021/04/15 05:05:47;;;;;;;6.15;4.00;;;;;;;17.65;34.93;102173.81;31489301;28;20017;-60
2021/04/15 05:20:49;;;;;;;7.43;4.22;;;;;;;17.65;35.08;102164.13;31503244;28;20041;-58
2021/04/15 05:35:58;;;;;;;6.63;4.13;;;;;;;17.68;34.52;102174.47;31501737;28;20025;-61
2021/04/15 05:51:02;;;;;;;6.80;4.20;;;;;;;17.73;34.49;102167.19;31510731;28;20049;-60
2021/04/15 06:06:04;;;;;;;6.18;4.28;;;;;;;17.80;34.77;102172.94;31505773;28;20032;-60
2021/04/15 06:21:12;;;;;;;7.25;2.90;;;;;;;15.84;29.11;102177.16;31508557;28;20032;-59
2021/04/15 06:36:43;;;;;;;8.38;3.05;;;;;;;14.52;30.85;102195.44;31490044;28;20097;-58
2021/04/15 06:51:57;;;;;;;5.38;2.60;;;;;;;15.43;34.33;102187.00;31486580;28;20095;-60
2021/04/15 07:07:04;;;;;;;5.90;2.30;;;;;;;16.85;33.47;102173.78;31474130;28;20028;-60
2021/04/15 07:22:47;;;;;;;5.67;2.20;;;;;;;17.93;32.13;102181.00;31471737;28;20108;-61
2021/04/15 07:38:13;;;;;;;7.53;2.25;;;;;;;18.66;31.93;102183.66;31477415;28;20074;-59
2021/04/15 07:53:40;;;;;;;7.25;2.25;;;;;;;19.16;30.99;102184.13;31441032;28;20478;-57
2021/04/15 08:08:57;;;;;;;8.37;4.43;;;;;;;19.67;30.24;102182.56;31472515;28;20032;-59
2021/04/15 08:24:04;;;;;;;5.50;2.63;;;;;;;20.26;30.10;102187.47;31457875;28;20452;-57
2021/04/15 08:39:15;;;;;;;6.85;2.80;;;;;;;21.31;28.86;102178.38;31450505;28;20075;-57
2021/04/15 08:54:48;;;;;;;6.13;2.78;;;;;;;21.29;29.12;102176.81;31493800;28;20031;-60
2021/04/15 09:10:04;;;;;;;5.22;2.65;;;;;;;21.17;29.59;102172.41;31492840;28;20101;-60
2021/04/15 09:25:16;;;;;;;6.20;2.63;;;;;;;21.50;29.39;102154.09;31533819;28;20032;-60
2021/04/15 09:40:23;;;;;;;5.05;2.60;;;;;;;23.30;27.05;102155.31;31424404;28;20074;-58
2021/04/15 09:55:44;;;;;;;5.25;3.05;;;;;;;24.45;25.12;102145.63;31547655;28;20024;-61
2021/04/15 10:10:57;;;;;;;7.88;3.92;;;;;;;23.63;25.44;102152.50;31504030;28;20040;-62
2021/04/15 10:26:01;;;;;;;8.15;4.82;;;;;;;23.10;25.69;102139.19;31481096;28;20394;-62
2021/04/15 10:41:39;;;;;;;7.15;4.80;;;;;;;21.51;28.44;102158.44;31447712;28;20041;-62
2021/04/15 10:56:43;;;;;;;7.70;4.60;;;;;;;20.95;29.46;102151.97;31459241;28;20024;-63
2021/04/15 11:12:07;;;;;;;6.80;4.45;;;;;;;20.80;30.69;102153.88;31481942;28;20097;-60
2021/04/15 11:27:08;;;;;;;8.02;5.00;;;;;;;20.92;31.72;102131.88;31458339;28;20033;-64
2021/04/15 11:42:10;;;;;;;9.27;4.72;;;;;;;20.63;31.93;102132.13;31475795;28;20067;-63
2021/04/15 11:57:33;;;;;;;5.72;3.53;;;;;;;20.43;31.41;102143.22;31428520;28;20029;-63
2021/04/15 12:12:36;;;;;;;7.25;4.20;;;;;;;20.39;31.65;102129.41;31370968;28;20417;-59
2021/04/15 12:27:37;;;;;;;6.28;4.25;;;;;;;20.25;31.39;102111.03;31475419;28;20146;-58
2021/04/15 12:42:39;;;;;;;7.67;3.87;;;;;;;20.13;33.39;102101.28;31536144;28;20118;-54
2021/04/15 12:57:40;;;;;;;5.93;3.55;;;;;;;20.36;32.72;102083.84;31535131;28;20278;-54
2021/04/15 13:12:44;;;;;;;6.97;4.22;;;;;;;20.53;32.60;102070.31;31517637;28;20036;-58
2021/04/15 13:27:57;;;;;;;7.22;3.97;;;;;;;20.62;32.98;102058.31;31529106;28;20371;-59
2021/04/15 13:42:58;;;;;;;5.63;3.53;;;;;;;20.36;33.68;102034.53;31560644;28;20032;-58
2021/04/15 13:57:59;;;;;;;5.37;3.80;;;;;;;20.17;34.23;102020.94;31492516;28;20028;-59
2021/04/15 14:13:12;;;;;;;6.23;3.80;;;;;;;20.12;34.41;102023.06;31570011;28;20295;-57
2021/04/15 14:28:19;;;;;;;20.33;14.68;;;;;;;19.99;33.87;102029.19;31536588;28;20323;-57
2021/04/15 14:43:23;;;;;;;;;;;;;;;20.02;34.01;102017.56;31600983;28;20044;-57
2021/04/15 14:58:26;;;;;;;8.30;6.18;;;;;;;19.87;34.73;102009.78;31600790;28;20434;-57
2021/04/15 15:13:28;;;;;;;8.90;6.40;;;;;;;19.87;34.67;102003.66;31554636;28;20379;-58
2021/04/15 15:28:29;;;;;;;8.88;5.78;;;;;;;19.95;34.85;101995.19;31568169;28;20383;-59
2021/04/15 15:43:30;;;;;;;8.00;5.95;;;;;;;20.04;34.87;101999.84;31484294;28;20085;-58
2021/04/15 15:58:31;;;;;;;8.73;5.90;;;;;;;20.00;35.29;101993.94;31489913;28;20097;-57
2021/04/15 16:13:32;;;;;;;9.43;6.30;;;;;;;19.94;35.50;102001.44;31466150;28;20044;-58
2021/04/15 16:28:33;;;;;;;8.88;6.85;;;;;;;19.92;35.47;102000.69;31486159;28;20339;-59
2021/04/15 16:43:34;;;;;;;10.38;7.50;;;;;;;19.83;35.52;102023.28;31489565;28;20029;-57
2021/04/15 16:58:35;;;;;;;9.85;7.00;;;;;;;19.76;35.29;102029.94;31452013;28;20043;-59
2021/04/15 17:13:36;;;;;;;10.00;8.13;;;;;;;19.59;35.52;102044.25;31441068;28;20036;-61
2021/04/15 17:28:37;;;;;;;11.63;8.27;;;;;;;19.45;35.39;102059.19;31428145;28;20303;-60
2021/04/15 17:43:38;;;;;;;12.10;8.48;;;;;;;19.30;35.22;102048.81;31361142;28;20287;-62
2021/04/15 17:58:40;;;;;;;15.07;7.90;;;;;;;19.16;35.54;102071.63;31391677;28;20085;-60
2021/04/15 18:13:42;;;;;;;12.50;7.90;;;;;;;19.11;35.00;102113.25;31481963;28;20359;-59
2021/04/15 18:28:42;;;;;;;11.65;8.23;;;;;;;19.04;35.21;102118.06;31473746;28;20469;-58
2021/04/15 18:43:48;;;;;;;4.75;2.50;;;;;;;16.75;31.61;102117.44;31497197;28;20550;-60
2021/04/15 18:58:49;;;;;;;2.88;1.80;;;;;;;15.07;33.31;102114.44;31578056;28;20047;-58
2021/04/15 19:13:51;;;;;;;5.68;3.30;;;;;;;16.44;34.34;102099.81;31522397;28;20040;-63
2021/04/15 19:28:52;;;;;;;5.50;3.03;;;;;;;17.72;34.19;102096.25;31547032;28;20059;-61
2021/04/15 19:43:53;;;;;;;5.00;2.97;;;;;;;18.42;32.90;102089.44;31488127;28;20032;-59
2021/04/15 19:58:54;;;;;;;5.87;4.20;;;;;;;19.00;31.86;102077.06;31440261;28;20391;-59
2021/04/15 20:13:56;;;;;;;7.03;4.17;;;;;;;19.27;31.79;102057.78;31441267;28;20286;-59
2021/04/15 20:28:57;;;;;;;5.97;3.63;;;;;;;19.37;31.34;102039.53;31424930;28;20294;-58
2021/04/15 20:43:58;;;;;;;5.27;3.77;;;;;;;19.39;31.53;102040.28;31477476;28;20028;-59
2021/04/15 20:58:59;;;;;;;5.13;3.87;;;;;;;19.33;31.68;102015.16;31484394;28;20784;-58
2021/04/15 21:14:00;;;;;;;5.23;3.40;;;;;;;19.27;31.87;101991.03;31441182;28;20294;-59
2021/04/15 21:29:01;;;;;;;5.87;3.47;;;;;;;19.34;31.91;101972.06;31427095;28;20798;-58
2021/04/15 21:44:04;;;;;;;6.27;3.77;;;;;;;19.52;31.25;101963.84;31403440;28;20299;-59
2021/04/15 21:59:05;;;;;;;6.40;3.83;;;;;;;19.50;31.05;101958.69;31401604;28;20704;-59
2021/04/15 22:14:08;;;;;;;5.17;3.93;;;;;;;19.33;31.49;101948.41;31409542;28;20507;-59
2021/04/15 22:29:18;;;;;;;5.93;2.85;;;;;;;19.05;31.90;101950.28;31451780;28;20782;-58
2021/04/15 22:44:19;;;;;;;4.30;2.10;;;;;;;18.76;31.66;101936.34;31502673;28;20451;-58
2021/04/15 22:59:20;;;;;;;4.30;2.55;;;;;;;18.64;32.89;101919.56;31519329;28;20114;-54
2021/04/15 23:14:21;;;;;;;5.60;3.17;;;;;;;18.58;33.52;101914.72;31446434;28;20515;-59
2021/04/15 23:29:22;;;;;;;4.80;2.87;;;;;;;18.56;33.29;101913.97;31428058;28;20305;-59
2021/04/15 23:44:23;;;;;;;4.50;2.67;;;;;;;18.50;33.60;101880.13;31439757;28;20794;-59
2021/04/15 23:59:24;;;;;;;4.43;2.63;;;;;;;18.47;33.79;101869.81;31422170;28;20295;-59
